Main page
METAR-TAF:

METAR-TAF

Airports :

Molde Airport. Årø

Molde, Norway

latitude: 62-45N, longitude: 007-16E, elevation: 0 m

Current weather observation

The report was made 35 minutes ago, at 03:50 UTC
Wind 6 kt from the East/Northeast
Temperature -3°C
Humidity 86%
Pressure 998 hPa
Visibility 10 km or more

METAR: ENML 250350Z AUTO 07006KT 9999NDV NCD M03/M05 Q0998

Time: 05:25 (04:25 UTC)

Forecast

The report was made 11 hours and 25 minutes ago, at 17:00 UTC
Forecast valid from 24 at 18 UTC to 24 at 22 UTC
Wind 5 kt from the West/Northwest
Visibility 10 km or more
Few clouds at a height of 1500 ft, Cumulonimbus.
Scattered clouds at a height of 3000 ft
Temporary
from 24 at 18 UTC to 24 at 22 UTC
Visibility: 1000 m
at a height of 800 ft
snow showers, rain

TAF: ENML 241700Z 2418/2422 30005KT 9999 FEW015CB SCT030 TEMPO 2418/2422 1000 SHSNRA VV008

Weather observations and forecasts of more than 4000 airports (METAR and TAF reports).

The available stations are represented by yellow and red dots on the map.

Hover mouse over dot to see the name of the station.

Then click to see weather observations and forecasts.

To change the map : click on the green buttons with a black cross to zoom in, on the green button with a dash to zoom out, or on the green arrows for adjacent maps.


METAR-TAF: